Time;durP1;ratioP1;P1;durP2;ratioP2;P2;SDS_P1;SDS_P2;PMS_P1;PMS_P2;Temp;Humidity;BMP_temperature;BMP_pressure;BME280_temperature;BME280_humidity;BME280_pressure;Samples;Min_cycle;Max_cycle;Signal;HPM_P1;HPM_P2
2022/03/08 00:00:50;;;;;;;9.50;7.75;;;;;;;1.64;50.75;99821.25;5028398;28;20128;-67
2022/03/08 00:03:23;;;;;;;12.23;7.18;;;;;;;1.56;50.71;99817.81;5027301;28;20312;-67
2022/03/08 00:05:56;;;;;;;8.57;6.80;;;;;;;1.50;51.11;99821.38;5027231;28;20048;-67
2022/03/08 00:08:29;;;;;;;9.00;6.57;;;;;;;1.49;50.96;99817.03;5027936;28;20045;-68
2022/03/08 00:11:03;;;;;;;9.52;7.13;;;;;;;1.31;50.96;99787.63;5028174;28;20050;-68
2022/03/08 00:13:35;;;;;;;10.10;6.88;;;;;;;1.46;50.90;99818.81;5027830;28;20042;-67
2022/03/08 00:16:07;;;;;;;10.57;7.95;;;;;;;1.24;51.16;99779.00;5028086;28;20061;-68
2022/03/08 00:18:40;;;;;;;11.65;7.53;;;;;;;1.37;50.95;99811.94;5027923;28;20042;-67
2022/03/08 00:21:13;;;;;;;9.15;7.05;;;;;;;1.30;51.58;99812.88;5027712;28;20209;-67
2022/03/08 00:23:46;;;;;;;9.65;6.18;;;;;;;1.34;51.04;99811.09;5027711;28;20191;-67
2022/03/08 00:26:18;;;;;;;13.05;7.63;;;;;;;1.30;51.64;99799.81;5027896;28;20049;-67
2022/03/08 00:28:50;;;;;;;8.50;6.40;;;;;;;1.34;51.07;99813.72;5027634;28;20046;-67
2022/03/08 00:31:23;;;;;;;10.75;7.18;;;;;;;1.30;51.03;99807.66;5027086;28;20049;-68
2022/03/08 00:33:55;;;;;;;10.07;7.63;;;;;;;1.04;51.22;99770.50;5027762;28;20309;-67
2022/03/08 00:36:29;;;;;;;11.73;7.93;;;;;;;1.25;51.06;99799.88;5027699;28;20038;-67
2022/03/08 00:39:02;;;;;;;10.43;7.07;;;;;;;1.22;51.63;99804.25;5027349;28;20231;-67
2022/03/08 00:41:34;;;;;;;8.35;6.97;;;;;;;1.17;51.54;99806.94;5027597;28;20042;-67
2022/03/08 00:44:07;;;;;;;9.93;7.20;;;;;;;1.08;51.75;99804.41;5027336;28;20049;-67
2022/03/08 00:46:39;;;;;;;9.70;7.90;;;;;;;1.02;51.70;99807.06;5027549;28;20205;-68
2022/03/08 00:49:11;;;;;;;8.35;7.03;;;;;;;1.05;51.69;99801.81;5027206;28;20045;-67
2022/03/08 00:51:45;;;;;;;9.30;7.55;;;;;;;1.04;51.38;99813.16;5027184;28;20042;-67
2022/03/08 00:54:17;;;;;;;9.15;7.40;;;;;;;1.01;51.62;99813.16;5026894;28;20321;-67
2022/03/08 00:56:48;;;;;;;9.90;6.72;;;;;;;0.98;52.24;99807.13;5027327;28;20313;-67
2022/03/08 00:59:18;;;;;;;10.00;7.18;;;;;;;0.93;51.66;99810.63;5026684;28;20324;-68
2022/03/08 01:01:48;;;;;;;8.95;6.65;;;;;;;0.91;51.91;99811.53;5027198;28;20049;-68
2022/03/08 01:04:19;;;;;;;9.77;7.68;;;;;;;0.88;52.22;99809.81;5027203;28;20076;-67
2022/03/08 01:06:49;;;;;;;10.80;8.43;;;;;;;0.89;51.97;99808.94;5027165;28;20042;-67
2022/03/08 01:09:18;;;;;;;13.30;7.63;;;;;;;0.68;52.08;99763.91;5027041;28;20076;-67
2022/03/08 01:11:48;;;;;;;8.88;6.63;;;;;;;0.89;51.74;99795.88;5027044;28;20041;-68
2022/03/08 01:14:19;;;;;;;9.07;7.50;;;;;;;0.85;52.26;99782.88;5026751;28;20042;-68
2022/03/08 01:16:49;;;;;;;9.50;6.90;;;;;;;0.42;51.82;99723.25;5026914;28;20050;-68
2022/03/08 01:19:19;;;;;;;10.77;8.15;;;;;;;0.84;51.85;99799.41;5026067;28;20053;-68
2022/03/08 01:21:50;;;;;;;10.80;8.27;;;;;;;0.82;51.97;99796.81;5027117;28;20026;-67
2022/03/08 01:24:19;;;;;;;10.82;8.30;;;;;;;0.83;51.82;99792.47;5026568;28;20041;-67
2022/03/08 01:26:49;;;;;;;9.63;7.13;;;;;;;0.77;52.40;99788.16;5026779;28;20029;-67
2022/03/08 01:29:19;;;;;;;11.77;7.78;;;;;;;0.80;51.89;99785.53;5026768;28;20046;-68
2022/03/08 01:31:49;;;;;;;14.40;8.90;;;;;;;0.75;52.30;99789.91;5026733;28;20042;-68
2022/03/08 01:34:19;;;;;;;10.40;7.75;;;;;;;0.76;52.17;99785.56;5026695;28;20202;-68
2022/03/08 01:36:51;;;;;;;11.13;8.82;;;;;;;0.74;52.38;99782.09;5026594;28;20316;-68
2022/03/08 01:39:19;;;;;;;9.68;7.43;;;;;;;0.73;52.10;99780.38;5026187;28;20313;-68
2022/03/08 01:41:50;;;;;;;9.52;7.72;;;;;;;0.68;52.22;99780.41;5026231;28;20297;-67
2022/03/08 01:44:20;;;;;;;9.55;7.47;;;;;;;0.68;51.97;99783.03;5026210;28;20037;-68
2022/03/08 01:46:50;;;;;;;9.13;7.57;;;;;;;-2.83;51.63;99191.28;5026171;28;20042;-68
2022/03/08 01:49:20;;;;;;;11.50;7.78;;;;;;;0.59;51.69;99780.50;5026379;28;20046;-68
2022/03/08 01:51:52;;;;;;;11.95;8.70;;;;;;;0.61;51.79;99786.56;5026351;28;20049;-68
2022/03/08 01:54:20;;;;;;;10.43;7.78;;;;;;;0.57;51.59;99790.06;5025061;28;20053;-68
2022/03/08 01:56:50;;;;;;;11.00;7.75;;;;;;;0.56;51.56;99780.50;5041974;28;20037;-67
2022/03/08 01:59:20;;;;;;;9.13;7.63;;;;;;;0.60;51.50;99782.22;5025856;28;20038;-67
2022/03/08 02:01:51;;;;;;;11.70;8.10;;;;;;;0.60;51.40;99782.22;5026170;28;20053;-67
2022/03/08 02:04:21;;;;;;;11.85;8.00;;;;;;;0.53;51.66;99783.16;5026209;28;20049;-68
2022/03/08 02:06:52;;;;;;;13.00;9.52;;;;;;;0.49;51.31;99784.06;5026146;28;20042;-68
2022/03/08 02:09:21;;;;;;;13.63;9.45;;;;;;;0.49;51.59;99781.44;5026101;28;20321;-68
2022/03/08 02:11:51;;;;;;;9.15;7.93;;;;;;;0.49;51.47;99781.44;5025288;28;20042;-68
2022/03/08 02:14:21;;;;;;;9.75;7.72;;;;;;;0.08;51.72;99713.97;5026037;28;20294;-68
2022/03/08 02:16:51;;;;;;;11.93;8.90;;;;;;;0.46;51.67;99781.47;5025738;28;20296;-68
2022/03/08 02:19:22;;;;;;;10.48;8.55;;;;;;;0.46;51.56;99781.47;5025627;28;20263;-68
2022/03/08 02:21:54;;;;;;;11.95;8.48;;;;;;;0.39;51.70;99774.56;5025752;28;20313;-68
2022/03/08 02:24:22;;;;;;;10.32;8.73;;;;;;;0.39;51.27;99778.03;5025529;28;20343;-67
2022/03/08 02:26:52;;;;;;;13.35;8.75;;;;;;;0.36;51.51;99770.25;5025671;28;20065;-67
2022/03/08 02:29:22;;;;;;;11.70;7.60;;;;;;;0.14;51.60;99733.03;5025924;28;20052;-67
2022/03/08 02:31:52;;;;;;;13.95;8.98;;;;;;;0.41;51.55;99768.47;5025623;28;20049;-67
2022/03/08 02:34:23;;;;;;;11.80;8.40;;;;;;;0.40;51.67;99769.34;5025882;28;20042;-67
2022/03/08 02:37:04;;;;;;;11.82;8.85;;;;;;;0.42;52.21;99780.63;5026150;28;20042;-67
2022/03/08 02:39:36;;;;;;;11.90;8.38;;;;;;;0.46;51.37;99779.72;5025463;28;20092;-67
2022/03/08 02:42:09;;;;;;;10.93;9.07;;;;;;;0.47;51.25;99772.78;5025778;28;20042;-67
2022/03/08 02:44:41;;;;;;;12.60;9.55;;;;;;;0.45;51.45;99774.53;5024738;28;20049;-67
2022/03/08 02:47:13;;;;;;;13.13;9.30;;;;;;;0.40;51.55;99771.09;5025723;28;20293;-67
2022/03/08 02:49:46;;;;;;;9.75;8.07;;;;;;;0.19;51.39;99735.59;5025689;28;20050;-67
2022/03/08 02:52:19;;;;;;;13.63;9.40;;;;;;;0.38;51.37;99770.22;5025422;28;20042;-67
2022/03/08 02:54:52;;;;;;;10.98;8.40;;;;;;;0.38;51.57;99765.00;5025220;28;20057;-67
2022/03/08 02:57:24;;;;;;;11.75;8.52;;;;;;;0.38;51.17;99775.44;5025409;28;20053;-66
2022/03/08 02:59:57;;;;;;;13.43;9.30;;;;;;;0.05;50.92;99727.88;5025474;28;20049;-67
2022/03/08 03:02:29;;;;;;;11.13;8.32;;;;;;;0.40;51.10;99784.13;5025532;28;20046;-67
2022/03/08 03:05:01;;;;;;;12.13;8.90;;;;;;;0.41;50.97;99772.81;5025560;28;20046;-67
2022/03/08 03:07:35;;;;;;;10.88;9.07;;;;;;;0.43;50.86;99776.28;5025522;28;20038;-67
2022/03/08 03:10:09;;;;;;;11.60;9.55;;;;;;;0.44;50.67;99775.41;5025204;28;20046;-67
2022/03/08 03:12:41;;;;;;;12.52;9.93;;;;;;;0.43;50.94;99776.28;5025236;28;20049;-67
2022/03/08 03:15:15;;;;;;;14.20;10.48;;;;;;;0.41;50.57;99778.91;5025230;28;20109;-67
2022/03/08 03:17:48;;;;;;;13.02;9.18;;;;;;;0.40;50.59;99787.59;5025223;28;20049;-67
2022/03/08 03:20:22;;;;;;;12.55;9.93;;;;;;;0.42;50.77;99782.38;5025082;28;20045;-67
2022/03/08 03:22:55;;;;;;;13.03;9.67;;;;;;;0.43;51.13;99787.56;5027625;28;20038;-67
2022/03/08 03:25:28;;;;;;;11.43;9.27;;;;;;;0.48;50.73;99798.84;5029021;28;20049;-67
2022/03/08 03:28:00;;;;;;;12.45;9.05;;;;;;;0.47;50.60;99791.88;5029040;28;20048;-67
2022/03/08 03:30:32;;;;;;;12.80;11.10;;;;;;;0.50;50.36;99791.00;5028969;28;20064;-67
2022/03/08 03:33:05;;;;;;;12.88;10.57;;;;;;;0.52;50.56;99784.91;5028896;28;20042;-67
2022/03/08 03:35:37;;;;;;;13.80;10.40;;;;;;;0.51;50.67;99797.94;5028632;28;20053;-67
2022/03/08 03:38:11;;;;;;;12.25;10.02;;;;;;;0.53;50.80;99799.66;5028848;28;20072;-67
2022/03/08 03:40:43;;;;;;;10.35;8.73;;;;;;;0.60;50.20;99795.25;5028817;28;20052;-67
2022/03/08 03:43:15;;;;;;;12.25;8.35;;;;;;;0.61;50.57;99795.25;5028719;28;20042;-67
2022/03/08 03:45:48;;;;;;;12.73;8.60;;;;;;;-0.40;50.37;99617.91;5028415;28;20190;-67
2022/03/08 03:48:20;;;;;;;12.25;9.02;;;;;;;0.63;50.40;99794.38;5028368;28;20067;-67
2022/03/08 03:50:52;;;;;;;14.38;10.95;;;;;;;0.57;50.84;99803.97;5028306;28;20038;-67
2022/03/08 03:53:26;;;;;;;14.13;10.40;;;;;;;0.57;50.62;99808.34;5027363;28;20050;-67
2022/03/08 03:55:58;;;;;;;11.85;8.18;;;;;;;0.59;50.15;99802.22;5028480;28;20049;-67
2022/03/08 03:58:31;;;;;;;10.63;8.48;;;;;;;0.59;50.26;99802.22;5028108;28;20042;-67
2022/03/08 04:01:04;;;;;;;11.48;8.88;;;;;;;0.18;50.41;99734.75;5028079;28;20046;-66
2022/03/08 04:03:36;;;;;;;14.70;10.02;;;;;;;0.60;50.45;99797.88;5028076;28;20045;-67
2022/03/08 04:06:08;;;;;;;14.43;8.45;;;;;;;0.55;50.49;99795.31;5028334;28;20305;-67
2022/03/08 04:08:42;;;;;;;11.55;9.27;;;;;;;0.55;50.56;99802.25;5028288;28;20041;-67
2022/03/08 04:11:14;;;;;;;12.73;10.23;;;;;;;0.51;50.81;99798.81;5028007;28;20041;-67
2022/03/08 04:13:47;;;;;;;11.60;8.68;;;;;;;0.52;50.62;99803.16;5028183;28;20042;-67
2022/03/08 04:16:19;;;;;;;11.52;8.27;;;;;;;0.51;50.62;99795.34;5028106;28;20050;-67
2022/03/08 04:18:51;;;;;;;13.15;9.35;;;;;;;0.35;50.49;99771.13;5027725;28;20045;-67
2022/03/08 04:21:24;;;;;;;14.82;9.50;;;;;;;0.50;50.67;99789.25;5027776;28;20042;-67
2022/03/08 04:23:59;;;;;;;13.00;10.90;;;;;;;-0.60;50.75;99606.75;5027693;28;20042;-67
2022/03/08 04:26:31;;;;;;;12.80;8.98;;;;;;;0.06;50.56;99732.22;5027923;28;20053;-67
2022/03/08 04:29:03;;;;;;;13.40;9.73;;;;;;;0.43;50.70;99798.00;5027570;28;20045;-67
2022/03/08 04:31:36;;;;;;;10.68;9.25;;;;;;;0.40;50.75;99798.03;5027838;28;20041;-67
2022/03/08 04:34:08;;;;;;;12.95;10.00;;;;;;;0.36;51.10;99801.53;5026837;28;20049;-67
2022/03/08 04:36:40;;;;;;;13.90;8.98;;;;;;;0.33;50.84;99796.34;5027724;28;20042;-67
2022/03/08 04:39:14;;;;;;;12.77;8.48;;;;;;;0.28;51.21;99788.53;5027341;28;20041;-67
2022/03/08 04:41:47;;;;;;;11.20;9.13;;;;;;;0.26;50.91;99790.28;5027375;28;20054;-67
2022/03/08 04:44:19;;;;;;;12.65;8.80;;;;;;;0.27;51.17;99789.41;5027316;28;20042;-67
2022/03/08 04:46:51;;;;;;;14.90;9.43;;;;;;;0.21;51.23;99783.38;5027507;28;20309;-67
2022/03/08 04:49:22;;;;;;;12.20;9.30;;;;;;;0.20;51.07;99784.25;5027223;28;20348;-67
2022/03/08 04:51:52;;;;;;;11.95;8.95;;;;;;;0.12;51.17;99779.09;5027680;28;20037;-67
2022/03/08 04:54:23;;;;;;;14.75;9.32;;;;;;;0.14;51.12;99784.31;5026232;28;20096;-67
2022/03/08 04:56:52;;;;;;;13.27;8.40;;;;;;;0.08;51.60;99793.03;5027017;28;20042;-66
2022/03/08 04:59:22;;;;;;;12.10;8.88;;;;;;;0.11;51.20;99779.97;5027229;28;20107;-67
2022/03/08 05:01:52;;;;;;;12.13;7.95;;;;;;;0.10;51.29;99780.84;5027008;28;20097;-67
2022/03/08 05:04:22;;;;;;;15.80;10.93;;;;;;;0.12;51.91;99780.84;5026821;28;20049;-67
2022/03/08 05:06:52;;;;;;;12.38;8.80;;;;;;;0.12;51.28;99781.69;5026344;28;20221;-67
2022/03/08 05:09:24;;;;;;;15.02;10.00;;;;;;;0.10;51.32;99777.38;5026319;28;20038;-66
2022/03/08 05:11:53;;;;;;;12.93;8.43;;;;;;;0.11;51.60;99779.97;5027115;28;20041;-66
2022/03/08 05:14:23;;;;;;;11.43;8.98;;;;;;;0.08;51.53;99782.59;5027256;28;20030;-67
2022/03/08 05:16:54;;;;;;;10.25;8.38;;;;;;;0.07;51.80;99778.25;5026212;28;20050;-67
2022/03/08 05:19:23;;;;;;;13.27;9.10;;;;;;;0.11;51.42;99782.56;5026800;28;20053;-67
2022/03/08 05:21:53;;;;;;;11.23;9.65;;;;;;;0.07;51.86;99778.25;5026108;28;20102;-67
2022/03/08 05:24:25;;;;;;;13.90;9.95;;;;;;;0.07;52.07;99782.59;5026362;28;20034;-67
2022/03/08 05:26:53;;;;;;;10.75;8.57;;;;;;;0.10;51.69;99785.19;5026546;28;20041;-67
2022/03/08 05:29:23;;;;;;;12.95;9.75;;;;;;;0.09;51.55;99781.72;5026468;28;20041;-67
2022/03/08 05:31:54;;;;;;;11.95;8.98;;;;;;;0.10;51.75;99788.66;5026587;28;20088;-67
2022/03/08 05:34:24;;;;;;;13.82;9.32;;;;;;;0.09;51.74;99789.53;5026379;28;20309;-68
2022/03/08 05:36:55;;;;;;;11.93;9.23;;;;;;;0.12;51.38;99786.03;5026614;28;20038;-68
2022/03/08 05:39:27;;;;;;;14.07;8.35;;;;;;;-0.70;51.74;99668.44;5026501;28;20038;-67
2022/03/08 05:41:56;;;;;;;11.70;9.20;;;;;;;0.10;51.42;99795.63;5025836;28;20042;-68
2022/03/08 05:44:26;;;;;;;11.75;9.35;;;;;;;0.14;51.23;99792.13;5026335;28;20057;-68
2022/03/08 05:46:56;;;;;;;12.60;9.32;;;;;;;0.14;51.48;99797.31;5026377;28;20038;-67
2022/03/08 05:49:26;;;;;;;11.18;9.27;;;;;;;0.10;51.36;99787.78;5026372;28;20041;-67
2022/03/08 05:51:57;;;;;;;9.80;8.25;;;;;;;0.09;51.50;99797.34;5025577;28;20040;-68
2022/03/08 05:54:28;;;;;;;12.07;9.07;;;;;;;0.15;51.37;99804.28;5025688;28;20068;-67
2022/03/08 05:56:57;;;;;;;13.95;9.20;;;;;;;0.09;51.53;99797.34;5026521;28;20033;-68
2022/03/08 05:59:27;;;;;;;10.70;8.30;;;;;;;-0.85;51.71;99641.59;5041558;28;20049;-67
2022/03/08 06:01:57;;;;;;;14.18;10.00;;;;;;;0.10;51.57;99795.63;5026771;28;20029;-68
2022/03/08 06:04:27;;;;;;;11.30;8.82;;;;;;;0.14;51.26;99802.53;5026126;28;20049;-68
2022/03/08 06:06:57;;;;;;;14.35;10.05;;;;;;;0.11;51.71;99792.13;5026056;28;20042;-68
2022/03/08 06:09:29;;;;;;;13.10;9.43;;;;;;;-0.05;51.19;99757.47;5026071;28;20042;-68
2022/03/08 06:11:58;;;;;;;10.45;8.55;;;;;;;0.17;51.20;99785.16;5025775;28;20049;-68
2022/03/08 06:14:28;;;;;;;12.10;9.32;;;;;;;0.21;51.08;99786.84;5026307;28;20030;-68
2022/03/08 06:16:58;;;;;;;16.42;9.98;;;;;;;0.28;50.85;99793.75;5025729;28;20046;-68
2022/03/08 06:19:28;;;;;;;11.95;9.60;;;;;;;0.37;51.08;99792.81;5026060;28;20034;-68
2022/03/08 06:21:58;;;;;;;12.57;9.32;;;;;;;0.50;50.48;99797.06;5024689;28;20041;-67
2022/03/08 06:24:30;;;;;;;12.73;9.35;;;;;;;0.61;50.49;99790.03;5025431;28;20183;-67
2022/03/08 06:26:59;;;;;;;11.60;9.70;;;;;;;0.70;50.14;99791.72;5025358;28;20194;-67
2022/03/08 06:29:29;;;;;;;11.00;8.52;;;;;;;0.77;50.29;99793.38;5025648;28;20049;-67
2022/03/08 06:31:59;;;;;;;12.25;8.80;;;;;;;0.79;50.34;99791.63;5025232;28;20045;-68
2022/03/08 06:34:29;;;;;;;12.35;10.40;;;;;;;0.83;50.27;99792.47;5024589;28;20042;-67
2022/03/08 06:36:59;;;;;;;12.52;9.15;;;;;;;0.88;50.27;99807.19;5025455;28;20038;-68
2022/03/08 06:39:31;;;;;;;12.43;9.23;;;;;;;0.93;50.43;99802.81;5025432;28;20049;-68
2022/03/08 06:41:59;;;;;;;13.02;9.80;;;;;;;0.04;50.28;99631.47;5025718;28;20145;-68
2022/03/08 06:44:31;;;;;;;11.35;8.63;;;;;;;1.08;49.92;99799.19;5025196;28;20194;-68
2022/03/08 06:46:59;;;;;;;11.77;7.70;;;;;;;1.13;50.09;99800.00;5024743;28;20065;-68
2022/03/08 06:49:29;;;;;;;12.57;9.63;;;;;;;1.19;49.80;99812.13;5025238;28;20247;-68
2022/03/08 06:52:00;;;;;;;12.18;9.25;;;;;;;1.25;49.71;99812.94;5025579;28;20041;-68
2022/03/08 06:54:31;;;;;;;13.88;9.10;;;;;;;1.38;49.64;99810.19;5025034;28;20081;-68
2022/03/08 06:57:00;;;;;;;12.32;9.15;;;;;;;1.28;49.20;99796.38;5026128;28;20096;-68
2022/03/08 06:59:30;;;;;;;15.00;10.35;;;;;;;0.40;49.02;99622.47;5029038;28;20042;-68
2022/03/08 07:02:00;;;;;;;15.73;10.18;;;;;;;1.71;48.90;99799.38;5029409;28;20041;-68
2022/03/08 07:04:30;;;;;;;10.70;8.52;;;;;;;1.86;49.06;99806.16;5029125;28;20053;-68
2022/03/08 07:07:00;;;;;;;12.15;8.68;;;;;;;2.03;48.72;99800.72;5029642;28;20093;-68
2022/03/08 07:09:32;;;;;;;12.00;8.95;;;;;;;2.16;48.55;99803.16;5029671;28;20081;-68
2022/03/08 07:12:01;;;;;;;14.75;10.18;;;;;;;2.36;48.54;99809.84;5028907;28;20053;-68
2022/03/08 07:14:31;;;;;;;14.13;9.13;;;;;;;2.56;48.44;99807.78;5029133;28;20041;-68
2022/03/08 07:17:01;;;;;;;13.55;9.40;;;;;;;2.79;47.65;99803.06;5028813;28;20037;-68
2022/03/08 07:19:31;;;;;;;13.27;9.38;;;;;;;3.00;47.76;99814.03;5029183;28;20030;-68
2022/03/08 07:22:01;;;;;;;10.98;8.48;;;;;;;3.17;47.50;99812.88;5028511;28;20230;-68
2022/03/08 07:24:33;;;;;;;13.88;9.20;;;;;;;3.18;47.23;99787.53;5028412;28;20053;-68
2022/03/08 07:27:01;;;;;;;13.10;8.68;;;;;;;3.50;46.91;99808.75;5028421;28;20294;-68
2022/03/08 07:29:31;;;;;;;10.27;8.23;;;;;;;3.69;46.74;99814.50;5028361;28;20090;-68
2022/03/08 07:32:02;;;;;;;11.45;8.98;;;;;;;3.94;46.21;99809.59;5028704;28;20255;-68
2022/03/08 07:34:32;;;;;;;11.15;8.38;;;;;;;4.11;46.02;99812.75;5028390;28;20042;-68
2022/03/08 07:37:02;;;;;;;12.32;9.05;;;;;;;4.14;45.80;99777.69;5028843;28;20037;-68
2022/03/08 07:39:33;;;;;;;10.73;8.45;;;;;;;4.44;45.77;99803.28;5028395;28;20257;-68
2022/03/08 07:42:02;;;;;;;10.98;9.15;;;;;;;4.43;45.71;99769.19;5028392;28;20033;-68
2022/03/08 07:44:32;;;;;;;12.68;9.07;;;;;;;4.65;45.50;99785.28;5028131;28;20250;-68
2022/03/08 07:47:02;;;;;;;10.18;7.18;;;;;;;4.96;45.14;99801.19;5028222;28;20314;-68
2022/03/08 07:49:32;;;;;;;11.60;9.20;;;;;;;5.17;45.00;99795.38;5028329;28;20164;-68
2022/03/08 07:52:03;;;;;;;11.90;8.65;;;;;;;5.26;44.68;99768.84;5028264;28;20046;-68
2022/03/08 07:54:34;;;;;;;13.65;8.63;;;;;;;5.40;44.14;99758.81;5028133;28;20050;-68
2022/03/08 07:57:03;;;;;;;10.77;7.97;;;;;;;5.81;43.88;99784.84;5028022;28;20042;-68
2022/03/08 07:59:33;;;;;;;10.80;7.90;;;;;;;5.97;43.44;99794.03;5028297;28;20038;-68
2022/03/08 08:02:03;;;;;;;10.63;8.25;;;;;;;6.16;43.61;99783.81;5028183;28;20052;-69
2022/03/08 08:04:33;;;;;;;10.23;7.38;;;;;;;6.23;43.34;99785.34;5028112;28;20030;-68
2022/03/08 08:07:04;;;;;;;11.25;8.07;;;;;;;6.31;43.52;99783.34;5027972;28;20042;-68
2022/03/08 08:09:35;;;;;;;10.82;7.93;;;;;;;6.59;43.14;99789.47;5026807;28;20129;-68
2022/03/08 08:12:06;;;;;;;12.00;8.35;;;;;;;6.71;43.02;99783.78;5027888;28;20042;-68
2022/03/08 08:14:33;;;;;;;15.23;8.60;;;;;;;6.82;42.62;99782.63;5027604;28;20057;-68
2022/03/08 08:17:04;;;;;;;9.65;6.97;;;;;;;7.01;42.12;99778.44;5027660;28;20042;-69
2022/03/08 08:19:34;;;;;;;9.13;6.97;;;;;;;7.12;42.01;99784.22;5028056;28;20030;-69
2022/03/08 08:22:04;;;;;;;13.65;8.15;;;;;;;7.07;41.91;99758.03;5027584;28;20092;-68
2022/03/08 08:24:36;;;;;;;11.18;8.20;;;;;;;7.36;41.67;99790.44;5027964;28;20037;-68
2022/03/08 08:27:05;;;;;;;11.80;8.55;;;;;;;7.50;40.84;99782.91;5027371;28;20092;-68
2022/03/08 08:29:34;;;;;;;10.85;8.68;;;;;;;7.63;40.68;99788.59;5027683;28;20037;-69
2022/03/08 08:32:05;;;;;;;12.07;7.28;;;;;;;7.81;40.96;99787.06;5027725;28;20046;-69
2022/03/08 08:34:34;;;;;;;9.55;6.22;;;;;;;7.82;40.71;99788.78;5027376;28;20041;-69
2022/03/08 08:37:05;;;;;;;10.93;6.63;;;;;;;7.68;40.66;99792.78;5027372;28;20205;-69
2022/03/08 08:39:36;;;;;;;10.70;7.13;;;;;;;7.90;40.96;99787.59;5027377;28;20026;-69
2022/03/08 08:42:06;;;;;;;10.90;7.45;;;;;;;4.49;40.07;99176.75;5027169;28;20038;-68
2022/03/08 08:44:35;;;;;;;11.40;7.50;;;;;;;8.18;40.30;99782.13;5027088;28;20030;-68
2022/03/08 08:47:05;;;;;;;9.05;7.00;;;;;;;8.26;40.07;99779.19;5027664;28;20162;-69
2022/03/08 08:49:35;;;;;;;11.40;7.50;;;;;;;8.31;40.19;99788.66;5027468;28;20306;-69
2022/03/08 08:52:06;;;;;;;13.52;8.50;;;;;;;8.27;39.51;99786.19;5027550;28;20203;-69
2022/03/08 08:54:37;;;;;;;11.93;8.40;;;;;;;8.27;39.84;99776.47;5026663;28;20222;-69
2022/03/08 08:57:06;;;;;;;10.48;7.68;;;;;;;8.42;40.07;99782.94;5027232;28;20201;-69
2022/03/08 08:59:36;;;;;;;9.40;7.35;;;;;;;8.66;39.33;99773.16;5027178;28;20294;-69
2022/03/08 09:02:06;;;;;;;10.93;7.50;;;;;;;8.87;39.83;99777.56;5026768;28;20298;-69
2022/03/08 09:04:36;;;;;;;11.20;7.85;;;;;;;8.87;39.48;99771.44;5026793;28;20042;-69
2022/03/08 09:07:06;;;;;;;10.35;7.88;;;;;;;9.05;39.22;99770.66;5026998;28;20285;-69
2022/03/08 09:09:37;;;;;;;13.73;8.40;;;;;;;9.15;39.17;99763.19;5026868;28;20049;-69
2022/03/08 09:12:07;;;;;;;12.27;8.77;;;;;;;9.26;38.59;99753.91;5026694;28;20053;-69
2022/03/08 09:14:36;;;;;;;11.70;7.72;;;;;;;9.36;38.42;99753.50;5025285;28;20046;-69
2022/03/08 09:17:06;;;;;;;11.18;7.55;;;;;;;9.57;38.04;99757.88;5026493;28;20135;-69
2022/03/08 09:19:36;;;;;;;12.00;8.52;;;;;;;9.73;38.63;99760.69;5026012;28;20249;-69
2022/03/08 09:22:07;;;;;;;10.63;7.95;;;;;;;9.72;38.11;99762.47;5026398;28;20037;-69
2022/03/08 09:24:39;;;;;;;11.40;7.80;;;;;;;9.65;37.71;99754.88;5026429;28;20360;-69
2022/03/08 09:27:07;;;;;;;11.50;6.60;;;;;;;9.82;38.76;99754.97;5026378;28;20318;-69
2022/03/08 09:29:38;;;;;;;12.20;8.13;;;;;;;9.90;37.40;99751.06;5026408;28;20293;-69
2022/03/08 09:32:08;;;;;;;11.40;7.75;;;;;;;10.01;38.15;99747.91;5026308;28;20046;-69
2022/03/08 09:34:39;;;;;;;9.75;7.15;;;;;;;10.03;38.07;99747.84;5026310;28;20237;-69
2022/03/08 09:37:07;;;;;;;9.27;6.65;;;;;;;10.20;38.06;99748.75;5026276;28;20038;-69
2022/03/08 09:39:39;;;;;;;12.50;8.65;;;;;;;10.30;36.33;99745.69;5026254;28;20061;-69
2022/03/08 09:42:08;;;;;;;9.95;7.45;;;;;;;10.40;37.66;99737.22;5026117;28;20187;-69
2022/03/08 09:44:38;;;;;;;10.20;8.07;;;;;;;10.44;37.10;99744.09;5026641;28;20042;-69
2022/03/08 09:47:08;;;;;;;7.85;6.55;;;;;;;10.33;36.58;99738.44;5026036;28;20038;-69
2022/03/08 09:49:38;;;;;;;13.57;7.55;;;;;;;10.36;36.74;99740.09;5026277;28;20064;-69
2022/03/08 09:52:08;;;;;;;11.10;6.95;;;;;;;10.30;37.44;99735.06;5026305;28;20038;-69
2022/03/08 09:54:42;;;;;;;9.30;6.63;;;;;;;10.37;36.67;99734.72;5025766;28;20064;-69
2022/03/08 09:57:18;;;;;;;8.65;6.35;;;;;;;10.50;37.13;99733.19;5026158;28;20293;-69
2022/03/08 09:59:50;;;;;;;8.13;5.40;;;;;;;10.54;36.48;99736.53;5025908;28;20084;-69
2022/03/08 10:02:23;;;;;;;11.23;6.47;;;;;;;10.68;37.07;99725.25;5025896;28;20058;-68
2022/03/08 10:05:06;;;;;;;8.57;6.00;;;;;;;10.76;34.83;99731.91;5025789;28;20097;-69
2022/03/08 10:07:38;;;;;;;10.27;6.13;;;;;;;10.83;36.50;99740.44;5025508;28;20293;-69
2022/03/08 10:10:12;;;;;;;10.23;6.70;;;;;;;10.75;36.06;99734.63;5025650;28;20229;-69
2022/03/08 10:12:56;;;;;;;14.18;7.80;;;;;;;10.81;34.68;99742.31;5025489;28;20088;-68
2022/03/08 10:15:28;;;;;;;8.77;5.40;;;;;;;10.43;36.75;99675.25;5025575;28;20038;-69
2022/03/08 10:18:01;;;;;;;8.55;5.47;;;;;;;10.86;35.84;99727.88;5025473;28;20049;-69
2022/03/08 10:20:34;;;;;;;7.55;5.35;;;;;;;11.19;36.00;99729.75;5025459;28;20088;-69
2022/03/08 10:23:13;;;;;;;7.93;5.47;;;;;;;11.37;34.38;99731.44;5025530;28;20360;-69
2022/03/08 10:25:46;;;;;;;7.95;6.43;;;;;;;11.34;35.19;99738.72;5025681;28;20085;-69
2022/03/08 10:28:19;;;;;;;9.13;6.68;;;;;;;11.33;34.56;99729.88;5025482;28;20054;-69
2022/03/08 10:30:53;;;;;;;8.95;7.03;;;;;;;10.97;35.19;99732.63;5025071;28;20348;-69
2022/03/08 10:33:36;;;;;;;11.50;6.33;;;;;;;10.99;33.98;99732.56;5024508;28;20050;-69
2022/03/08 10:36:13;;;;;;;9.52;6.78;;;;;;;10.59;35.18;99732.72;5025624;28;20381;-69
2022/03/08 10:39:09;;;;;;;8.30;6.45;;;;;;;10.47;33.78;99735.97;5025615;28;20100;-69
2022/03/08 10:41:52;;;;;;;7.13;5.72;;;;;;;10.14;34.96;99737.59;5025242;28;20042;-69
2022/03/08 10:44:37;;;;;;;10.57;8.10;;;;;;;10.01;35.36;99745.25;5024996;28;20092;-69
2022/03/08 10:47:10;;;;;;;8.65;6.35;;;;;;;10.03;36.74;99735.47;5025037;28;20052;-69
2022/03/08 10:49:50;;;;;;;8.63;6.30;;;;;;;10.03;34.11;99739.88;5024877;28;20041;-69
2022/03/08 10:52:29;;;;;;;8.48;4.63;;;;;;;10.17;34.17;99737.44;5025056;28;20045;-69
2022/03/08 10:55:13;;;;;;;9.20;6.57;;;;;;;10.28;33.90;99732.50;5024905;28;20104;-69
2022/03/08 10:57:49;;;;;;;6.97;5.55;;;;;;;10.29;35.09;99720.97;5024492;28;20096;-69
2022/03/08 11:00:23;;;;;;;6.90;4.90;;;;;;;10.32;35.45;99736.72;5024831;28;20050;-69
2022/03/08 11:02:57;;;;;;;8.73;5.87;;;;;;;10.30;35.63;99735.94;5023794;28;20095;-69
2022/03/08 11:05:31;;;;;;;10.27;7.13;;;;;;;10.05;35.66;99725.66;5024611;28;20042;-69
2022/03/08 11:08:05;;;;;;;10.85;6.32;;;;;;;10.06;36.28;99745.91;5024633;28;20048;-69
2022/03/08 11:10:38;;;;;;;9.82;6.63;;;;;;;9.70;36.16;99732.56;5024670;28;20041;-69
2022/03/08 11:13:13;;;;;;;8.35;6.07;;;;;;;9.75;36.03;99735.88;5024500;28;20101;-69
2022/03/08 11:15:46;;;;;;;7.60;5.60;;;;;;;9.78;36.59;99735.72;5024704;28;20086;-70
2022/03/08 11:18:19;;;;;;;9.30;6.65;;;;;;;9.72;36.56;99708.69;5024875;28;20065;-70
2022/03/08 11:20:56;;;;;;;9.45;6.07;;;;;;;9.73;35.22;99735.09;5024236;28;20050;-69
2022/03/08 11:23:29;;;;;;;9.18;6.50;;;;;;;9.77;36.27;99734.00;5024467;28;20121;-69
2022/03/08 11:26:02;;;;;;;10.98;7.03;;;;;;;9.80;36.46;99710.06;5024879;28;20046;-70
2022/03/08 11:28:36;;;;;;;9.38;6.57;;;;;;;10.18;35.42;99739.16;5024178;28;20046;-69
2022/03/08 11:31:08;;;;;;;15.03;10.70;;;;;;;9.44;35.13;99609.41;5025156;28;20049;-69
2022/03/08 11:33:48;;;;;;;13.65;9.77;;;;;;;10.20;34.40;99729.34;5023659;28;20050;-70
2022/03/08 11:36:28;;;;;;;13.60;8.30;;;;;;;10.12;34.53;99728.88;5024066;28;20084;-70
2022/03/08 11:39:28;;;;;;;11.82;7.95;;;;;;;10.07;33.90;99721.13;5024301;28;20046;-70
2022/03/08 11:42:31;;;;;;;7.18;5.70;;;;;;;10.03;33.90;99724.88;4982324;28;20080;-69
2022/03/08 11:45:11;;;;;;;8.70;6.03;;;;;;;9.85;35.09;99731.03;5027859;28;20140;-69
2022/03/08 11:47:45;;;;;;;11.07;6.72;;;;;;;9.84;36.05;99730.16;5027753;28;20041;-69
2022/03/08 11:50:21;;;;;;;7.65;5.82;;;;;;;9.66;35.31;99724.84;5027769;28;20041;-70
2022/03/08 11:53:06;;;;;;;9.27;6.15;;;;;;;9.48;34.64;99730.03;5026924;28;20281;-70
2022/03/08 11:55:45;;;;;;;8.57;6.00;;;;;;;9.42;35.61;99727.66;5027572;28;20060;-69